sensor_id;sensor_type;location;lat;lon;timestamp;P1;durP1;ratioP1;P2;durP2;ratioP2
81621;SDS011;71029;50.742;7.090;2023-07-30T00:00:43;3.85;;;1.55;;
81621;SDS011;71029;50.742;7.090;2023-07-30T00:03:09;3.75;;;1.95;;
81621;SDS011;71029;50.742;7.090;2023-07-30T00:05:36;3.70;;;1.98;;
81621;SDS011;71029;50.742;7.090;2023-07-30T00:08:03;3.25;;;2.03;;
81621;SDS011;71029;50.742;7.090;2023-07-30T00:10:29;2.58;;;1.60;;
81621;SDS011;71029;50.742;7.090;2023-07-30T00:12:56;4.50;;;1.83;;
81621;SDS011;71029;50.742;7.090;2023-07-30T00:15:23;3.88;;;1.58;;
81621;SDS011;71029;50.742;7.090;2023-07-30T00:17:49;3.15;;;1.88;;
81621;SDS011;71029;50.742;7.090;2023-07-30T00:20:16;3.40;;;1.60;;
81621;SDS011;71029;50.742;7.090;2023-07-30T00:22:42;4.50;;;1.60;;
81621;SDS011;71029;50.742;7.090;2023-07-30T00:25:09;3.13;;;1.50;;
81621;SDS011;71029;50.742;7.090;2023-07-30T00:27:35;3.70;;;1.50;;
81621;SDS011;71029;50.742;7.090;2023-07-30T00:30:02;2.22;;;1.58;;
81621;SDS011;71029;50.742;7.090;2023-07-30T00:32:29;2.58;;;1.40;;
81621;SDS011;71029;50.742;7.090;2023-07-30T00:34:55;3.83;;;1.45;;
81621;SDS011;71029;50.742;7.090;2023-07-30T00:37:22;1.95;;;1.20;;
81621;SDS011;71029;50.742;7.090;2023-07-30T00:39:49;1.70;;;1.13;;
81621;SDS011;71029;50.742;7.090;2023-07-30T00:42:15;3.42;;;1.50;;
81621;SDS011;71029;50.742;7.090;2023-07-30T00:44:41;3.75;;;1.65;;
81621;SDS011;71029;50.742;7.090;2023-07-30T00:47:08;1.95;;;1.23;;
81621;SDS011;71029;50.742;7.090;2023-07-30T00:49:34;3.92;;;1.65;;
81621;SDS011;71029;50.742;7.090;2023-07-30T00:52:01;2.20;;;1.17;;
81621;SDS011;71029;50.742;7.090;2023-07-30T00:54:30;2.75;;;1.02;;
81621;SDS011;71029;50.742;7.090;2023-07-30T00:56:56;3.85;;;1.65;;
81621;SDS011;71029;50.742;7.090;2023-07-30T00:59:23;2.47;;;1.15;;
81621;SDS011;71029;50.742;7.090;2023-07-30T01:01:50;2.38;;;1.50;;
81621;SDS011;71029;50.742;7.090;2023-07-30T01:04:18;1.65;;;1.27;;
81621;SDS011;71029;50.742;7.090;2023-07-30T01:06:44;2.50;;;1.02;;
81621;SDS011;71029;50.742;7.090;2023-07-30T01:09:11;2.92;;;1.23;;
81621;SDS011;71029;50.742;7.090;2023-07-30T01:11:38;2.17;;;1.15;;
81621;SDS011;71029;50.742;7.090;2023-07-30T01:14:05;2.95;;;1.35;;
81621;SDS011;71029;50.742;7.090;2023-07-30T01:16:34;2.92;;;1.42;;
81621;SDS011;71029;50.742;7.090;2023-07-30T01:19:00;3.92;;;1.25;;
81621;SDS011;71029;50.742;7.090;2023-07-30T01:21:39;3.35;;;1.13;;
81621;SDS011;71029;50.742;7.090;2023-07-30T01:24:06;1.52;;;1.13;;
81621;SDS011;71029;50.742;7.090;2023-07-30T01:26:35;2.00;;;1.30;;
81621;SDS011;71029;50.742;7.090;2023-07-30T01:29:03;1.58;;;0.85;;
81621;SDS011;71029;50.742;7.090;2023-07-30T01:31:33;1.58;;;1.13;;
81621;SDS011;71029;50.742;7.090;2023-07-30T01:34:01;3.10;;;1.20;;
81621;SDS011;71029;50.742;7.090;2023-07-30T01:36:30;1.55;;;1.15;;
81621;SDS011;71029;50.742;7.090;2023-07-30T01:38:58;3.08;;;1.05;;
81621;SDS011;71029;50.742;7.090;2023-07-30T01:41:25;2.72;;;1.52;;
81621;SDS011;71029;50.742;7.090;2023-07-30T01:43:53;3.28;;;1.13;;
81621;SDS011;71029;50.742;7.090;2023-07-30T01:46:20;2.35;;;1.20;;
81621;SDS011;71029;50.742;7.090;2023-07-30T01:48:46;1.55;;;1.33;;
81621;SDS011;71029;50.742;7.090;2023-07-30T01:51:13;2.15;;;1.52;;
81621;SDS011;71029;50.742;7.090;2023-07-30T01:53:39;2.40;;;1.40;;
81621;SDS011;71029;50.742;7.090;2023-07-30T01:56:09;3.38;;;1.23;;
81621;SDS011;71029;50.742;7.090;2023-07-30T01:58:35;3.97;;;1.30;;
81621;SDS011;71029;50.742;7.090;2023-07-30T02:01:02;2.67;;;1.17;;
81621;SDS011;71029;50.742;7.090;2023-07-30T02:03:29;3.95;;;1.23;;
81621;SDS011;71029;50.742;7.090;2023-07-30T02:05:56;2.95;;;1.02;;
81621;SDS011;71029;50.742;7.090;2023-07-30T02:08:22;1.65;;;0.90;;
81621;SDS011;71029;50.742;7.090;2023-07-30T02:10:58;2.97;;;1.05;;
81621;SDS011;71029;50.742;7.090;2023-07-30T02:13:25;2.85;;;1.20;;
81621;SDS011;71029;50.742;7.090;2023-07-30T02:15:52;2.85;;;1.20;;
81621;SDS011;71029;50.742;7.090;2023-07-30T02:18:18;4.78;;;1.20;;
81621;SDS011;71029;50.742;7.090;2023-07-30T02:20:45;2.33;;;1.08;;
81621;SDS011;71029;50.742;7.090;2023-07-30T02:23:13;2.53;;;0.93;;
81621;SDS011;71029;50.742;7.090;2023-07-30T02:25:41;2.45;;;1.33;;
81621;SDS011;71029;50.742;7.090;2023-07-30T02:28:07;1.75;;;1.08;;
81621;SDS011;71029;50.742;7.090;2023-07-30T02:30:34;1.85;;;1.38;;
81621;SDS011;71029;50.742;7.090;2023-07-30T02:33:01;1.33;;;0.93;;
81621;SDS011;71029;50.742;7.090;2023-07-30T02:35:27;3.25;;;1.15;;
81621;SDS011;71029;50.742;7.090;2023-07-30T02:37:54;2.88;;;1.10;;
81621;SDS011;71029;50.742;7.090;2023-07-30T02:40:20;3.25;;;1.02;;
81621;SDS011;71029;50.742;7.090;2023-07-30T02:42:47;2.13;;;0.90;;
81621;SDS011;71029;50.742;7.090;2023-07-30T02:45:14;2.03;;;0.90;;
81621;SDS011;71029;50.742;7.090;2023-07-30T02:47:40;2.13;;;1.10;;
81621;SDS011;71029;50.742;7.090;2023-07-30T02:50:07;2.28;;;0.82;;
81621;SDS011;71029;50.742;7.090;2023-07-30T02:52:35;2.28;;;0.90;;
81621;SDS011;71029;50.742;7.090;2023-07-30T02:55:01;2.28;;;1.42;;
81621;SDS011;71029;50.742;7.090;2023-07-30T02:57:29;2.92;;;0.93;;
81621;SDS011;71029;50.742;7.090;2023-07-30T02:59:55;2.28;;;1.40;;
81621;SDS011;71029;50.742;7.090;2023-07-30T03:02:22;1.58;;;1.23;;
81621;SDS011;71029;50.742;7.090;2023-07-30T03:04:48;3.28;;;1.35;;
81621;SDS011;71029;50.742;7.090;2023-07-30T03:07:15;1.65;;;1.20;;
81621;SDS011;71029;50.742;7.090;2023-07-30T03:09:42;1.80;;;1.10;;
81621;SDS011;71029;50.742;7.090;2023-07-30T03:12:08;3.97;;;1.30;;
81621;SDS011;71029;50.742;7.090;2023-07-30T03:14:35;2.08;;;1.08;;
81621;SDS011;71029;50.742;7.090;2023-07-30T03:17:02;1.77;;;0.90;;
81621;SDS011;71029;50.742;7.090;2023-07-30T03:19:31;2.38;;;1.02;;
81621;SDS011;71029;50.742;7.090;2023-07-30T03:21:57;1.52;;;0.93;;
81621;SDS011;71029;50.742;7.090;2023-07-30T03:24:24;2.25;;;1.20;;
81621;SDS011;71029;50.742;7.090;2023-07-30T03:26:51;3.10;;;1.20;;
81621;SDS011;71029;50.742;7.090;2023-07-30T03:29:17;2.05;;;1.05;;
81621;SDS011;71029;50.742;7.090;2023-07-30T03:31:44;3.60;;;1.13;;
81621;SDS011;71029;50.742;7.090;2023-07-30T03:34:13;3.22;;;1.38;;
81621;SDS011;71029;50.742;7.090;2023-07-30T03:36:40;2.67;;;1.17;;
81621;SDS011;71029;50.742;7.090;2023-07-30T03:39:07;3.58;;;1.10;;
81621;SDS011;71029;50.742;7.090;2023-07-30T03:41:33;3.03;;;1.05;;
81621;SDS011;71029;50.742;7.090;2023-07-30T03:44:02;2.80;;;1.05;;
81621;SDS011;71029;50.742;7.090;2023-07-30T03:46:28;3.05;;;1.25;;
81621;SDS011;71029;50.742;7.090;2023-07-30T03:48:55;2.38;;;0.90;;
81621;SDS011;71029;50.742;7.090;2023-07-30T03:51:21;3.03;;;0.90;;
81621;SDS011;71029;50.742;7.090;2023-07-30T03:53:48;2.33;;;1.17;;
81621;SDS011;71029;50.742;7.090;2023-07-30T03:56:15;3.38;;;0.90;;
81621;SDS011;71029;50.742;7.090;2023-07-30T03:58:41;3.20;;;1.63;;
81621;SDS011;71029;50.742;7.090;2023-07-30T04:01:08;1.90;;;1.02;;
81621;SDS011;71029;50.742;7.090;2023-07-30T04:03:35;3.17;;;1.20;;
81621;SDS011;71029;50.742;7.090;2023-07-30T04:06:02;1.23;;;0.73;;
81621;SDS011;71029;50.742;7.090;2023-07-30T04:08:29;3.10;;;1.00;;
81621;SDS011;71029;50.742;7.090;2023-07-30T04:10:55;1.77;;;0.90;;
81621;SDS011;71029;50.742;7.090;2023-07-30T04:13:22;3.08;;;0.68;;
81621;SDS011;71029;50.742;7.090;2023-07-30T04:15:48;3.47;;;1.08;;
81621;SDS011;71029;50.742;7.090;2023-07-30T04:18:15;2.45;;;0.95;;
81621;SDS011;71029;50.742;7.090;2023-07-30T04:20:41;1.38;;;0.88;;
81621;SDS011;71029;50.742;7.090;2023-07-30T04:23:08;3.08;;;0.90;;
81621;SDS011;71029;50.742;7.090;2023-07-30T04:25:34;2.00;;;0.60;;
81621;SDS011;71029;50.742;7.090;2023-07-30T04:28:01;2.92;;;1.15;;
81621;SDS011;71029;50.742;7.090;2023-07-30T04:30:27;3.72;;;1.13;;
81621;SDS011;71029;50.742;7.090;2023-07-30T04:32:54;3.03;;;0.95;;
81621;SDS011;71029;50.742;7.090;2023-07-30T04:35:21;2.53;;;1.05;;
81621;SDS011;71029;50.742;7.090;2023-07-30T04:37:47;2.33;;;1.15;;
81621;SDS011;71029;50.742;7.090;2023-07-30T04:40:14;2.53;;;0.98;;
81621;SDS011;71029;50.742;7.090;2023-07-30T04:42:40;2.20;;;1.10;;
81621;SDS011;71029;50.742;7.090;2023-07-30T04:45:07;1.90;;;1.08;;
81621;SDS011;71029;50.742;7.090;2023-07-30T04:47:33;2.17;;;0.93;;
81621;SDS011;71029;50.742;7.090;2023-07-30T04:50:00;2.33;;;1.40;;
81621;SDS011;71029;50.742;7.090;2023-07-30T04:52:27;2.65;;;1.20;;
81621;SDS011;71029;50.742;7.090;2023-07-30T04:54:53;1.30;;;0.82;;
81621;SDS011;71029;50.742;7.090;2023-07-30T04:57:19;3.25;;;1.05;;
81621;SDS011;71029;50.742;7.090;2023-07-30T04:59:46;2.78;;;1.10;;
81621;SDS011;71029;50.742;7.090;2023-07-30T05:02:13;2.35;;;0.88;;
81621;SDS011;71029;50.742;7.090;2023-07-30T05:04:39;2.92;;;1.02;;
81621;SDS011;71029;50.742;7.090;2023-07-30T05:07:06;3.15;;;1.20;;
81621;SDS011;71029;50.742;7.090;2023-07-30T05:09:32;3.25;;;1.27;;
81621;SDS011;71029;50.742;7.090;2023-07-30T05:11:58;2.25;;;1.27;;
81621;SDS011;71029;50.742;7.090;2023-07-30T05:14:25;3.22;;;1.27;;
81621;SDS011;71029;50.742;7.090;2023-07-30T05:16:51;2.08;;;0.82;;
81621;SDS011;71029;50.742;7.090;2023-07-30T05:19:18;3.95;;;1.10;;
81621;SDS011;71029;50.742;7.090;2023-07-30T05:21:44;6.13;;;1.85;;
81621;SDS011;71029;50.742;7.090;2023-07-30T05:24:11;3.38;;;1.23;;
81621;SDS011;71029;50.742;7.090;2023-07-30T05:26:37;6.03;;;1.33;;
81621;SDS011;71029;50.742;7.090;2023-07-30T05:29:04;4.13;;;1.20;;
81621;SDS011;71029;50.742;7.090;2023-07-30T05:31:31;2.80;;;0.85;;
81621;SDS011;71029;50.742;7.090;2023-07-30T05:33:57;4.18;;;1.05;;
81621;SDS011;71029;50.742;7.090;2023-07-30T05:36:24;2.55;;;0.90;;
81621;SDS011;71029;50.742;7.090;2023-07-30T05:38:50;3.05;;;0.82;;
81621;SDS011;71029;50.742;7.090;2023-07-30T05:41:17;3.20;;;1.50;;
81621;SDS011;71029;50.742;7.090;2023-07-30T05:43:43;4.15;;;1.00;;
81621;SDS011;71029;50.742;7.090;2023-07-30T05:46:10;2.47;;;1.10;;
81621;SDS011;71029;50.742;7.090;2023-07-30T05:48:37;3.90;;;0.73;;
81621;SDS011;71029;50.742;7.090;2023-07-30T05:51:03;4.68;;;1.40;;
81621;SDS011;71029;50.742;7.090;2023-07-30T05:53:30;4.05;;;1.15;;
81621;SDS011;71029;50.742;7.090;2023-07-30T05:55:56;2.85;;;1.02;;
81621;SDS011;71029;50.742;7.090;2023-07-30T05:58:23;4.28;;;1.20;;
81621;SDS011;71029;50.742;7.090;2023-07-30T06:00:49;6.40;;;1.25;;
81621;SDS011;71029;50.742;7.090;2023-07-30T06:03:16;3.03;;;1.13;;
81621;SDS011;71029;50.742;7.090;2023-07-30T06:05:42;4.22;;;1.17;;
81621;SDS011;71029;50.742;7.090;2023-07-30T06:08:09;4.43;;;1.50;;
81621;SDS011;71029;50.742;7.090;2023-07-30T06:10:38;5.32;;;0.90;;
81621;SDS011;71029;50.742;7.090;2023-07-30T06:13:07;4.13;;;0.90;;
81621;SDS011;71029;50.742;7.090;2023-07-30T06:15:33;2.15;;;0.88;;
81621;SDS011;71029;50.742;7.090;2023-07-30T06:18:01;3.45;;;1.52;;
81621;SDS011;71029;50.742;7.090;2023-07-30T06:20:28;3.42;;;1.33;;
81621;SDS011;71029;50.742;7.090;2023-07-30T06:22:55;2.65;;;1.15;;
81621;SDS011;71029;50.742;7.090;2023-07-30T06:25:22;6.40;;;1.30;;
81621;SDS011;71029;50.742;7.090;2023-07-30T06:27:48;3.97;;;1.42;;
81621;SDS011;71029;50.742;7.090;2023-07-30T06:30:14;3.40;;;1.05;;
81621;SDS011;71029;50.742;7.090;2023-07-30T06:32:41;4.90;;;1.52;;
81621;SDS011;71029;50.742;7.090;2023-07-30T06:35:08;2.88;;;1.02;;
81621;SDS011;71029;50.742;7.090;2023-07-30T06:37:34;3.97;;;1.02;;
81621;SDS011;71029;50.742;7.090;2023-07-30T06:40:01;6.22;;;1.23;;
81621;SDS011;71029;50.742;7.090;2023-07-30T06:42:32;6.45;;;1.55;;
81621;SDS011;71029;50.742;7.090;2023-07-30T06:44:59;3.60;;;1.33;;
81621;SDS011;71029;50.742;7.090;2023-07-30T06:47:25;4.90;;;1.13;;
81621;SDS011;71029;50.742;7.090;2023-07-30T06:49:52;7.65;;;1.52;;
81621;SDS011;71029;50.742;7.090;2023-07-30T06:52:18;6.05;;;1.52;;
81621;SDS011;71029;50.742;7.090;2023-07-30T06:54:45;5.25;;;1.23;;
81621;SDS011;71029;50.742;7.090;2023-07-30T06:57:11;3.10;;;1.30;;
81621;SDS011;71029;50.742;7.090;2023-07-30T06:59:38;4.38;;;1.38;;
81621;SDS011;71029;50.742;7.090;2023-07-30T07:02:05;6.40;;;2.03;;
81621;SDS011;71029;50.742;7.090;2023-07-30T07:04:31;3.35;;;0.90;;
81621;SDS011;71029;50.742;7.090;2023-07-30T07:06:58;5.25;;;1.40;;
81621;SDS011;71029;50.742;7.090;2023-07-30T07:09:24;5.00;;;1.10;;
81621;SDS011;71029;50.742;7.090;2023-07-30T07:11:52;3.75;;;1.10;;
81621;SDS011;71029;50.742;7.090;2023-07-30T07:14:19;6.55;;;1.30;;
81621;SDS011;71029;50.742;7.090;2023-07-30T07:16:45;4.60;;;1.33;;
81621;SDS011;71029;50.742;7.090;2023-07-30T07:19:12;4.13;;;1.15;;
81621;SDS011;71029;50.742;7.090;2023-07-30T07:21:38;4.53;;;1.15;;
81621;SDS011;71029;50.742;7.090;2023-07-30T07:24:05;5.57;;;1.38;;
81621;SDS011;71029;50.742;7.090;2023-07-30T07:26:32;7.00;;;1.40;;
81621;SDS011;71029;50.742;7.090;2023-07-30T07:28:58;7.18;;;1.45;;
81621;SDS011;71029;50.742;7.090;2023-07-30T07:31:25;5.57;;;1.33;;
81621;SDS011;71029;50.742;7.090;2023-07-30T07:33:51;3.70;;;1.15;;
81621;SDS011;71029;50.742;7.090;2023-07-30T07:36:18;4.28;;;1.02;;
81621;SDS011;71029;50.742;7.090;2023-07-30T07:38:44;4.35;;;1.20;;
81621;SDS011;71029;50.742;7.090;2023-07-30T07:41:14;3.95;;;1.33;;
81621;SDS011;71029;50.742;7.090;2023-07-30T07:43:48;3.30;;;1.08;;
81621;SDS011;71029;50.742;7.090;2023-07-30T07:46:15;5.32;;;1.35;;
81621;SDS011;71029;50.742;7.090;2023-07-30T07:48:42;3.65;;;0.93;;
81621;SDS011;71029;50.742;7.090;2023-07-30T07:51:10;4.20;;;0.80;;
81621;SDS011;71029;50.742;7.090;2023-07-30T07:53:37;6.15;;;1.52;;
81621;SDS011;71029;50.742;7.090;2023-07-30T07:56:04;5.20;;;1.15;;
81621;SDS011;71029;50.742;7.090;2023-07-30T07:58:31;5.35;;;1.25;;
81621;SDS011;71029;50.742;7.090;2023-07-30T08:00:58;7.00;;;1.42;;
81621;SDS011;71029;50.742;7.090;2023-07-30T08:03:24;3.10;;;0.73;;
81621;SDS011;71029;50.742;7.090;2023-07-30T08:05:53;4.55;;;1.50;;
81621;SDS011;71029;50.742;7.090;2023-07-30T08:08:19;3.00;;;1.20;;
81621;SDS011;71029;50.742;7.090;2023-07-30T08:10:46;3.55;;;1.40;;
81621;SDS011;71029;50.742;7.090;2023-07-30T08:13:13;6.28;;;1.58;;
81621;SDS011;71029;50.742;7.090;2023-07-30T08:15:40;5.00;;;1.08;;
81621;SDS011;71029;50.742;7.090;2023-07-30T08:18:07;5.38;;;1.08;;
81621;SDS011;71029;50.742;7.090;2023-07-30T08:20:33;3.28;;;1.20;;
81621;SDS011;71029;50.742;7.090;2023-07-30T08:23:00;3.00;;;1.42;;
81621;SDS011;71029;50.742;7.090;2023-07-30T08:25:26;4.13;;;1.05;;
81621;SDS011;71029;50.742;7.090;2023-07-30T08:27:53;5.43;;;1.35;;
81621;SDS011;71029;50.742;7.090;2023-07-30T08:30:20;5.55;;;1.25;;
81621;SDS011;71029;50.742;7.090;2023-07-30T08:32:46;6.43;;;1.42;;
81621;SDS011;71029;50.742;7.090;2023-07-30T08:35:13;5.78;;;1.55;;
81621;SDS011;71029;50.742;7.090;2023-07-30T08:37:39;6.35;;;1.45;;
81621;SDS011;71029;50.742;7.090;2023-07-30T08:40:06;5.30;;;1.10;;
81621;SDS011;71029;50.742;7.090;2023-07-30T08:42:34;6.03;;;1.90;;
81621;SDS011;71029;50.742;7.090;2023-07-30T08:45:01;6.10;;;1.60;;
81621;SDS011;71029;50.742;7.090;2023-07-30T08:47:31;5.15;;;1.20;;
81621;SDS011;71029;50.742;7.090;2023-07-30T08:49:58;10.05;;;1.63;;
81621;SDS011;71029;50.742;7.090;2023-07-30T08:52:25;7.05;;;1.23;;
81621;SDS011;71029;50.742;7.090;2023-07-30T08:54:53;4.80;;;1.40;;
81621;SDS011;71029;50.742;7.090;2023-07-30T08:57:22;5.07;;;1.30;;
81621;SDS011;71029;50.742;7.090;2023-07-30T08:59:52;9.80;;;1.45;;
81621;SDS011;71029;50.742;7.090;2023-07-30T09:02:30;4.50;;;1.33;;
81621;SDS011;71029;50.742;7.090;2023-07-30T09:05:00;4.82;;;1.63;;
81621;SDS011;71029;50.742;7.090;2023-07-30T09:07:30;3.28;;;0.85;;
81621;SDS011;71029;50.742;7.090;2023-07-30T09:09:57;4.75;;;1.50;;
81621;SDS011;71029;50.742;7.090;2023-07-30T09:12:34;5.25;;;1.52;;
81621;SDS011;71029;50.742;7.090;2023-07-30T09:15:05;4.22;;;1.73;;
81621;SDS011;71029;50.742;7.090;2023-07-30T09:17:33;4.75;;;1.27;;
81621;SDS011;71029;50.742;7.090;2023-07-30T09:20:00;4.13;;;1.42;;
81621;SDS011;71029;50.742;7.090;2023-07-30T09:22:32;4.47;;;1.48;;
81621;SDS011;71029;50.742;7.090;2023-07-30T09:25:02;6.40;;;1.60;;
81621;SDS011;71029;50.742;7.090;2023-07-30T09:27:29;4.82;;;1.65;;
81621;SDS011;71029;50.742;7.090;2023-07-30T09:30:01;3.28;;;1.30;;
81621;SDS011;71029;50.742;7.090;2023-07-30T09:32:32;4.63;;;1.13;;
81621;SDS011;71029;50.742;7.090;2023-07-30T09:35:10;6.97;;;1.52;;
81621;SDS011;71029;50.742;7.090;2023-07-30T09:37:41;7.88;;;1.27;;
81621;SDS011;71029;50.742;7.090;2023-07-30T09:40:08;7.75;;;1.52;;
81621;SDS011;71029;50.742;7.090;2023-07-30T09:42:38;8.00;;;1.65;;
81621;SDS011;71029;50.742;7.090;2023-07-30T09:45:20;10.48;;;1.52;;
81621;SDS011;71029;50.742;7.090;2023-07-30T09:47:50;8.18;;;2.05;;
81621;SDS011;71029;50.742;7.090;2023-07-30T09:50:18;13.73;;;2.53;;
81621;SDS011;71029;50.742;7.090;2023-07-30T09:52:45;12.63;;;1.92;;
81621;SDS011;71029;50.742;7.090;2023-07-30T09:55:12;8.40;;;1.75;;
81621;SDS011;71029;50.742;7.090;2023-07-30T09:57:38;14.65;;;2.10;;
81621;SDS011;71029;50.742;7.090;2023-07-30T10:00:05;11.55;;;1.88;;
81621;SDS011;71029;50.742;7.090;2023-07-30T10:02:38;15.02;;;2.45;;
81621;SDS011;71029;50.742;7.090;2023-07-30T10:05:15;26.55;;;5.05;;
81621;SDS011;71029;50.742;7.090;2023-07-30T10:08:19;25.73;;;6.35;;
81621;SDS011;71029;50.742;7.090;2023-07-30T10:10:47;21.95;;;5.35;;
81621;SDS011;71029;50.742;7.090;2023-07-30T10:13:15;18.70;;;4.85;;
81621;SDS011;71029;50.742;7.090;2023-07-30T10:15:43;25.00;;;4.80;;
81621;SDS011;71029;50.742;7.090;2023-07-30T10:18:09;17.00;;;4.32;;
81621;SDS011;71029;50.742;7.090;2023-07-30T10:20:36;18.50;;;4.10;;
81621;SDS011;71029;50.742;7.090;2023-07-30T10:23:04;20.10;;;4.13;;
81621;SDS011;71029;50.742;7.090;2023-07-30T10:28:25;16.30;;;3.55;;
81621;SDS011;71029;50.742;7.090;2023-07-30T10:31:01;13.82;;;3.95;;
81621;SDS011;71029;50.742;7.090;2023-07-30T10:33:46;16.77;;;3.60;;
81621;SDS011;71029;50.742;7.090;2023-07-30T10:36:17;13.48;;;3.92;;
81621;SDS011;71029;50.742;7.090;2023-07-30T10:38:45;15.70;;;3.53;;
81621;SDS011;71029;50.742;7.090;2023-07-30T10:41:13;12.18;;;3.15;;
81621;SDS011;71029;50.742;7.090;2023-07-30T10:43:45;13.82;;;3.10;;
81621;SDS011;71029;50.742;7.090;2023-07-30T10:46:14;17.17;;;2.75;;
81621;SDS011;71029;50.742;7.090;2023-07-30T10:48:43;11.77;;;2.92;;
81621;SDS011;71029;50.742;7.090;2023-07-30T10:51:12;12.50;;;2.47;;
81621;SDS011;71029;50.742;7.090;2023-07-30T10:53:47;14.05;;;3.30;;
81621;SDS011;71029;50.742;7.090;2023-07-30T10:56:21;11.88;;;2.55;;
81621;SDS011;71029;50.742;7.090;2023-07-30T10:58:53;16.65;;;2.83;;
81621;SDS011;71029;50.742;7.090;2023-07-30T11:01:20;13.07;;;3.35;;
81621;SDS011;71029;50.742;7.090;2023-07-30T11:03:50;10.23;;;2.50;;
81621;SDS011;71029;50.742;7.090;2023-07-30T11:06:24;7.35;;;1.83;;
81621;SDS011;71029;50.742;7.090;2023-07-30T11:08:52;8.55;;;2.17;;
81621;SDS011;71029;50.742;7.090;2023-07-30T11:11:19;9.90;;;2.30;;
81621;SDS011;71029;50.742;7.090;2023-07-30T11:13:46;12.88;;;2.45;;
81621;SDS011;71029;50.742;7.090;2023-07-30T11:16:13;11.48;;;2.00;;
81621;SDS011;71029;50.742;7.090;2023-07-30T11:18:41;10.13;;;2.20;;
81621;SDS011;71029;50.742;7.090;2023-07-30T11:21:12;10.50;;;2.30;;
81621;SDS011;71029;50.742;7.090;2023-07-30T11:23:42;19.08;;;2.72;;
81621;SDS011;71029;50.742;7.090;2023-07-30T11:26:17;12.55;;;1.95;;
81621;SDS011;71029;50.742;7.090;2023-07-30T11:28:44;13.95;;;2.45;;
81621;SDS011;71029;50.742;7.090;2023-07-30T11:31:13;14.32;;;2.60;;
81621;SDS011;71029;50.742;7.090;2023-07-30T11:33:44;10.80;;;1.92;;
81621;SDS011;71029;50.742;7.090;2023-07-30T11:36:14;18.58;;;2.13;;
81621;SDS011;71029;50.742;7.090;2023-07-30T11:38:42;12.82;;;2.03;;
81621;SDS011;71029;50.742;7.090;2023-07-30T11:41:10;8.40;;;1.75;;
81621;SDS011;71029;50.742;7.090;2023-07-30T11:43:46;15.32;;;1.83;;
81621;SDS011;71029;50.742;7.090;2023-07-30T11:46:16;8.20;;;1.52;;
81621;SDS011;71029;50.742;7.090;2023-07-30T11:48:45;8.27;;;1.60;;
81621;SDS011;71029;50.742;7.090;2023-07-30T11:51:23;8.20;;;1.67;;
81621;SDS011;71029;50.742;7.090;2023-07-30T11:53:59;10.57;;;1.70;;
81621;SDS011;71029;50.742;7.090;2023-07-30T11:56:28;15.98;;;1.80;;
81621;SDS011;71029;50.742;7.090;2023-07-30T11:58:59;7.25;;;1.35;;
81621;SDS011;71029;50.742;7.090;2023-07-30T12:01:30;13.02;;;1.98;;
81621;SDS011;71029;50.742;7.090;2023-07-30T12:04:01;17.27;;;1.70;;
81621;SDS011;71029;50.742;7.090;2023-07-30T12:09:12;7.68;;;1.13;;
81621;SDS011;71029;50.742;7.090;2023-07-30T12:11:50;7.32;;;1.45;;
81621;SDS011;71029;50.742;7.090;2023-07-30T12:16:58;6.53;;;1.52;;
81621;SDS011;71029;50.742;7.090;2023-07-30T12:19:25;8.32;;;1.48;;
81621;SDS011;71029;50.742;7.090;2023-07-30T12:21:52;7.63;;;1.20;;
81621;SDS011;71029;50.742;7.090;2023-07-30T12:24:19;7.72;;;1.20;;
81621;SDS011;71029;50.742;7.090;2023-07-30T12:26:46;9.93;;;1.30;;
81621;SDS011;71029;50.742;7.090;2023-07-30T12:29:12;6.13;;;1.33;;
81621;SDS011;71029;50.742;7.090;2023-07-30T12:31:39;9.75;;;1.23;;
81621;SDS011;71029;50.742;7.090;2023-07-30T12:34:06;12.05;;;1.30;;
81621;SDS011;71029;50.742;7.090;2023-07-30T12:36:32;6.57;;;1.33;;
81621;SDS011;71029;50.742;7.090;2023-07-30T12:38:59;6.53;;;1.17;;
81621;SDS011;71029;50.742;7.090;2023-07-30T12:41:25;5.88;;;0.82;;
81621;SDS011;71029;50.742;7.090;2023-07-30T12:43:52;8.75;;;1.88;;
81621;SDS011;71029;50.742;7.090;2023-07-30T12:46:20;8.02;;;1.02;;
81621;SDS011;71029;50.742;7.090;2023-07-30T12:48:47;7.55;;;1.08;;
81621;SDS011;71029;50.742;7.090;2023-07-30T12:51:13;6.10;;;1.30;;
81621;SDS011;71029;50.742;7.090;2023-07-30T12:53:40;7.55;;;1.13;;
81621;SDS011;71029;50.742;7.090;2023-07-30T12:56:06;10.25;;;0.88;;
81621;SDS011;71029;50.742;7.090;2023-07-30T12:58:33;2.85;;;0.90;;
81621;SDS011;71029;50.742;7.090;2023-07-30T13:01:00;8.32;;;1.42;;
81621;SDS011;71029;50.742;7.090;2023-07-30T13:03:26;9.57;;;1.13;;
81621;SDS011;71029;50.742;7.090;2023-07-30T13:05:53;10.80;;;1.15;;
81621;SDS011;71029;50.742;7.090;2023-07-30T13:08:20;6.78;;;0.98;;
81621;SDS011;71029;50.742;7.090;2023-07-30T13:10:46;6.70;;;1.25;;
81621;SDS011;71029;50.742;7.090;2023-07-30T13:13:13;5.22;;;0.82;;
81621;SDS011;71029;50.742;7.090;2023-07-30T13:15:39;5.50;;;0.88;;
81621;SDS011;71029;50.742;7.090;2023-07-30T13:18:06;6.68;;;1.23;;
81621;SDS011;71029;50.742;7.090;2023-07-30T13:20:32;4.50;;;0.90;;
81621;SDS011;71029;50.742;7.090;2023-07-30T13:22:59;5.88;;;0.90;;
81621;SDS011;71029;50.742;7.090;2023-07-30T13:25:25;3.45;;;0.80;;
81621;SDS011;71029;50.742;7.090;2023-07-30T13:27:52;4.32;;;0.93;;
81621;SDS011;71029;50.742;7.090;2023-07-30T13:30:19;5.47;;;0.80;;
81621;SDS011;71029;50.742;7.090;2023-07-30T13:32:45;5.80;;;0.73;;
81621;SDS011;71029;50.742;7.090;2023-07-30T13:35:12;7.10;;;1.00;;
81621;SDS011;71029;50.742;7.090;2023-07-30T13:37:39;6.15;;;1.00;;
81621;SDS011;71029;50.742;7.090;2023-07-30T13:40:05;5.05;;;1.30;;
81621;SDS011;71029;50.742;7.090;2023-07-30T13:42:32;5.38;;;1.05;;
81621;SDS011;71029;50.742;7.090;2023-07-30T13:44:59;7.72;;;1.33;;
81621;SDS011;71029;50.742;7.090;2023-07-30T13:47:26;3.08;;;0.68;;
81621;SDS011;71029;50.742;7.090;2023-07-30T13:49:53;4.50;;;0.73;;
81621;SDS011;71029;50.742;7.090;2023-07-30T13:52:20;4.00;;;1.10;;
81621;SDS011;71029;50.742;7.090;2023-07-30T13:54:46;3.35;;;0.70;;
81621;SDS011;71029;50.742;7.090;2023-07-30T13:57:13;5.32;;;1.02;;
81621;SDS011;71029;50.742;7.090;2023-07-30T14:02:14;3.53;;;0.85;;
81621;SDS011;71029;50.742;7.090;2023-07-30T14:04:41;3.45;;;0.75;;
81621;SDS011;71029;50.742;7.090;2023-07-30T14:07:07;4.35;;;0.80;;
81621;SDS011;71029;50.742;7.090;2023-07-30T14:09:34;3.45;;;0.88;;
81621;SDS011;71029;50.742;7.090;2023-07-30T14:12:03;1.45;;;0.60;;
81621;SDS011;71029;50.742;7.090;2023-07-30T14:14:30;2.55;;;0.88;;
81621;SDS011;71029;50.742;7.090;2023-07-30T14:16:56;3.63;;;0.90;;
81621;SDS011;71029;50.742;7.090;2023-07-30T14:19:23;3.10;;;0.73;;
81621;SDS011;71029;50.742;7.090;2023-07-30T14:21:49;2.90;;;0.90;;
81621;SDS011;71029;50.742;7.090;2023-07-30T14:24:16;4.10;;;0.70;;
81621;SDS011;71029;50.742;7.090;2023-07-30T14:26:42;2.60;;;0.73;;
81621;SDS011;71029;50.742;7.090;2023-07-30T14:29:09;3.17;;;0.82;;
81621;SDS011;71029;50.742;7.090;2023-07-30T14:31:35;3.28;;;0.93;;
81621;SDS011;71029;50.742;7.090;2023-07-30T14:34:06;2.60;;;0.82;;
81621;SDS011;71029;50.742;7.090;2023-07-30T14:36:32;2.17;;;0.70;;
81621;SDS011;71029;50.742;7.090;2023-07-30T14:38:58;3.25;;;0.63;;
81621;SDS011;71029;50.742;7.090;2023-07-30T14:41:25;2.30;;;0.80;;
81621;SDS011;71029;50.742;7.090;2023-07-30T14:43:51;3.45;;;0.60;;
81621;SDS011;71029;50.742;7.090;2023-07-30T14:46:18;1.88;;;0.50;;
81621;SDS011;71029;50.742;7.090;2023-07-30T14:48:45;2.75;;;0.73;;
81621;SDS011;71029;50.742;7.090;2023-07-30T14:51:11;3.75;;;1.00;;
81621;SDS011;71029;50.742;7.090;2023-07-30T14:53:38;2.22;;;0.77;;
81621;SDS011;71029;50.742;7.090;2023-07-30T14:56:04;2.15;;;0.75;;
81621;SDS011;71029;50.742;7.090;2023-07-30T14:58:31;4.57;;;1.10;;